createdAt,value
2022-09-15T00:00:33.713Z,12.87
2022-09-15T00:01:33.843Z,12.87
2022-09-15T00:02:33.854Z,12.85
2022-09-15T00:03:33.685Z,12.84
2022-09-15T00:04:33.675Z,12.81
2022-09-15T00:05:33.669Z,12.79
2022-09-15T00:06:33.681Z,12.77
2022-09-15T00:07:33.746Z,12.75
2022-09-15T00:08:33.637Z,12.71
2022-09-15T00:09:33.642Z,12.71
2022-09-15T00:10:33.743Z,12.70
2022-09-15T00:11:33.822Z,12.70
2022-09-15T00:12:33.588Z,12.67
2022-09-15T00:13:33.763Z,12.67
2022-09-15T00:14:33.703Z,12.64
2022-09-15T00:15:33.584Z,12.63
2022-09-15T00:16:33.653Z,12.63
2022-09-15T00:17:33.539Z,12.60
2022-09-15T00:18:33.536Z,12.62
2022-09-15T00:19:33.578Z,12.62
2022-09-15T00:20:33.704Z,12.60
2022-09-15T00:21:33.532Z,12.62
2022-09-15T00:22:33.847Z,12.60
2022-09-15T00:23:33.661Z,12.60
2022-09-15T00:24:33.515Z,12.60
2022-09-15T00:25:33.703Z,12.59
2022-09-15T00:26:33.501Z,12.59
2022-09-15T00:27:33.474Z,12.59
2022-09-15T00:28:33.572Z,12.60
2022-09-15T00:29:33.406Z,12.60
2022-09-15T00:30:33.490Z,12.60
2022-09-15T00:31:33.483Z,12.60
2022-09-15T00:32:33.388Z,12.60
2022-09-15T00:33:33.413Z,12.59
2022-09-15T00:34:33.378Z,12.59
2022-09-15T00:35:33.379Z,12.57
2022-09-15T00:36:33.343Z,12.59
2022-09-15T00:37:33.564Z,12.59
2022-09-15T00:38:33.777Z,12.59
2022-09-15T00:39:33.400Z,12.57
2022-09-15T00:40:33.554Z,12.59
2022-09-15T00:41:33.472Z,12.60
2022-09-15T00:42:33.507Z,12.60
2022-09-15T00:43:33.616Z,12.57
2022-09-15T00:44:33.586Z,12.57
2022-09-15T00:45:33.275Z,12.56
2022-09-15T00:46:33.219Z,12.54
2022-09-15T00:47:33.331Z,12.54
2022-09-15T00:48:33.301Z,12.52
2022-09-15T00:49:33.384Z,12.52
2022-09-15T00:50:33.423Z,12.49
2022-09-15T00:51:33.220Z,12.48
2022-09-15T00:52:33.188Z,12.45
2022-09-15T00:53:33.307Z,12.44
2022-09-15T00:54:33.176Z,12.42
2022-09-15T00:55:33.212Z,12.39
2022-09-15T00:56:33.149Z,12.38
2022-09-15T00:57:33.125Z,12.38
2022-09-15T00:58:33.159Z,12.34
2022-09-15T00:59:33.132Z,12.33
2022-09-15T01:00:33.110Z,12.31
2022-09-15T01:01:33.199Z,12.29
2022-09-15T01:02:33.289Z,12.27
2022-09-15T01:03:33.112Z,12.24
2022-09-15T01:04:33.215Z,12.26
2022-09-15T01:05:33.032Z,12.23
2022-09-15T01:06:33.073Z,12.20
2022-09-15T01:07:33.173Z,12.20
2022-09-15T01:08:33.030Z,12.16
2022-09-15T01:09:33.071Z,12.15
2022-09-15T01:10:33.003Z,12.15
2022-09-15T01:11:33.029Z,12.13
2022-09-15T01:12:33.001Z,12.12
2022-09-15T01:13:32.963Z,12.12
2022-09-15T01:14:33.010Z,12.12
2022-09-15T01:15:32.967Z,12.09
2022-09-15T01:16:33.072Z,12.11
2022-09-15T01:17:33.037Z,12.11
2022-09-15T01:18:32.922Z,12.11
2022-09-15T01:19:32.916Z,12.09
2022-09-15T01:20:32.929Z,12.09
2022-09-15T01:21:32.908Z,12.09
2022-09-15T01:22:32.896Z,12.09
2022-09-15T01:23:32.931Z,12.08
2022-09-15T01:24:33.086Z,12.05
2022-09-15T01:25:32.916Z,12.05
2022-09-15T01:26:32.848Z,12.02
2022-09-15T01:27:42.674Z,12.01
2022-09-15T01:28:32.866Z,11.97
2022-09-15T01:29:32.805Z,11.97
2022-09-15T01:30:32.811Z,11.94
2022-09-15T01:31:33.040Z,11.93
2022-09-15T01:32:32.924Z,11.89
2022-09-15T01:33:32.938Z,11.87
2022-09-15T01:34:32.864Z,11.85
2022-09-15T01:35:32.780Z,11.85
2022-09-15T01:36:32.866Z,11.82
2022-09-15T01:37:32.796Z,11.80
2022-09-15T01:38:32.757Z,11.78
2022-09-15T01:39:32.880Z,11.78
2022-09-15T01:40:32.944Z,11.77
2022-09-15T01:41:32.773Z,11.75
2022-09-15T01:42:32.780Z,11.74
2022-09-15T01:43:32.843Z,11.72
2022-09-15T01:44:32.875Z,11.71
2022-09-15T01:45:32.730Z,11.72
2022-09-15T01:46:32.853Z,11.71
2022-09-15T01:47:32.660Z,11.70
2022-09-15T01:48:32.906Z,11.68
2022-09-15T01:49:32.861Z,11.67
2022-09-15T01:50:32.606Z,11.65
2022-09-15T01:51:32.775Z,11.65
2022-09-15T01:52:32.592Z,11.65
2022-09-15T01:53:32.656Z,11.65
2022-09-15T01:54:32.546Z,11.64
2022-09-15T01:55:32.562Z,11.64
2022-09-15T01:56:32.733Z,11.67
2022-09-15T01:57:32.557Z,11.64
2022-09-15T01:58:32.578Z,11.65
2022-09-15T01:59:32.509Z,11.67
2022-09-15T02:00:32.524Z,11.65
2022-09-15T02:01:32.618Z,11.67
2022-09-15T02:02:32.564Z,11.65
2022-09-15T02:03:32.501Z,11.68
2022-09-15T02:04:32.491Z,11.68
2022-09-15T02:05:32.501Z,11.71
2022-09-15T02:06:32.562Z,11.71
2022-09-15T02:07:32.440Z,11.74
2022-09-15T02:08:32.446Z,11.75
2022-09-15T02:09:32.591Z,11.78
2022-09-15T02:10:32.501Z,11.80
2022-09-15T02:11:32.418Z,11.82
2022-09-15T02:12:32.383Z,11.83
2022-09-15T02:13:32.590Z,11.86
2022-09-15T02:14:32.502Z,11.86
2022-09-15T02:15:32.358Z,11.86
2022-09-15T02:16:32.428Z,11.87
2022-09-15T02:17:32.542Z,11.89
2022-09-15T02:18:32.450Z,11.90
2022-09-15T02:19:32.451Z,11.93
2022-09-15T02:20:32.636Z,11.90
2022-09-15T02:21:32.891Z,11.90
2022-09-15T02:22:32.313Z,11.89
2022-09-15T02:23:32.298Z,11.90
2022-09-15T02:24:32.452Z,11.93
2022-09-15T02:25:32.455Z,11.89
2022-09-15T02:26:32.277Z,11.87
2022-09-15T02:27:32.409Z,11.90
2022-09-15T02:28:32.250Z,11.90
2022-09-15T02:29:32.249Z,11.89
2022-09-15T02:30:32.232Z,11.90
2022-09-15T02:31:32.359Z,11.90
2022-09-15T02:32:32.225Z,11.93
2022-09-15T02:33:32.383Z,11.93
2022-09-15T02:34:32.297Z,11.93
2022-09-15T02:35:32.177Z,11.94
2022-09-15T02:36:32.335Z,11.94
2022-09-15T02:37:32.262Z,11.96
2022-09-15T02:38:32.227Z,11.99
2022-09-15T02:39:32.294Z,11.99
2022-09-15T02:40:32.171Z,12.01
2022-09-15T02:41:32.328Z,12.04
2022-09-15T02:42:32.076Z,12.06
2022-09-15T02:43:32.126Z,12.08
2022-09-15T02:44:32.061Z,12.08
2022-09-15T02:45:32.420Z,12.09
2022-09-15T02:46:32.044Z,12.09
2022-09-15T02:47:32.061Z,12.11
2022-09-15T02:48:32.026Z,12.15
2022-09-15T02:49:32.045Z,12.16
2022-09-15T02:50:32.019Z,12.16
2022-09-15T02:51:32.002Z,12.20
2022-09-15T02:52:32.101Z,12.21
2022-09-15T02:53:32.299Z,12.24
2022-09-15T02:54:32.008Z,12.29
2022-09-15T02:55:32.145Z,12.31
2022-09-15T02:56:32.034Z,12.34
2022-09-15T02:57:31.987Z,12.37
2022-09-15T02:58:32.147Z,12.39
2022-09-15T02:59:31.921Z,12.41
2022-09-15T03:00:32.145Z,12.44
2022-09-15T03:01:31.986Z,12.46
2022-09-15T03:02:32.011Z,12.49
2022-09-15T03:03:32.055Z,12.49
2022-09-15T03:04:31.896Z,12.52
2022-09-15T03:05:31.893Z,12.56
2022-09-15T03:06:32.065Z,12.59
2022-09-15T03:07:31.874Z,12.60
2022-09-15T03:08:31.965Z,12.62
2022-09-15T03:09:31.890Z,12.63
2022-09-15T03:10:31.997Z,12.64
2022-09-15T03:11:32.021Z,12.66
2022-09-15T03:12:31.854Z,12.67
2022-09-15T03:13:31.976Z,12.70
2022-09-15T03:14:31.775Z,12.69
2022-09-15T03:15:31.774Z,12.70
2022-09-15T03:16:32.006Z,12.74
2022-09-15T03:17:31.771Z,12.74
2022-09-15T03:18:31.788Z,12.75
2022-09-15T03:19:31.944Z,12.75
2022-09-15T03:20:31.706Z,12.75
2022-09-15T03:21:31.867Z,12.75
2022-09-15T03:22:31.710Z,12.77
2022-09-15T03:23:31.728Z,12.78
2022-09-15T03:24:31.991Z,12.79
2022-09-15T03:25:31.763Z,12.81
2022-09-15T03:26:31.852Z,12.82
2022-09-15T03:27:31.645Z,12.82
2022-09-15T03:28:31.846Z,12.82
2022-09-15T03:29:32.171Z,12.82
2022-09-15T03:30:31.745Z,12.84
2022-09-15T03:31:31.707Z,12.84
2022-09-15T03:32:31.798Z,12.84
2022-09-15T03:33:31.973Z,12.85
2022-09-15T03:34:31.593Z,12.85
2022-09-15T03:35:31.582Z,12.87
2022-09-15T03:36:32.028Z,12.87
2022-09-15T03:37:31.553Z,12.88
2022-09-15T03:38:31.773Z,12.88
2022-09-15T03:39:31.747Z,12.92
2022-09-15T03:40:31.611Z,12.93
2022-09-15T03:41:31.627Z,12.93
2022-09-15T03:42:31.617Z,12.95
2022-09-15T03:43:31.542Z,12.95
2022-09-15T03:44:31.544Z,12.96
2022-09-15T03:45:31.580Z,12.97
2022-09-15T03:46:31.699Z,12.99
2022-09-15T03:47:31.471Z,13.00
2022-09-15T03:48:31.650Z,13.02
2022-09-15T03:49:31.578Z,13.02
2022-09-15T03:50:31.437Z,13.02
2022-09-15T03:51:31.466Z,13.02
2022-09-15T03:52:31.414Z,13.03
2022-09-15T03:53:31.420Z,13.03
2022-09-15T03:54:31.554Z,13.04
2022-09-15T03:55:31.430Z,13.03
2022-09-15T03:56:31.465Z,13.06
2022-09-15T03:57:31.413Z,13.04
2022-09-15T03:58:31.329Z,13.04
2022-09-15T03:59:31.387Z,13.06
2022-09-15T04:00:31.436Z,13.04
2022-09-15T04:01:31.992Z,13.07
2022-09-15T04:02:31.338Z,13.04
2022-09-15T04:03:31.347Z,13.06
2022-09-15T04:04:31.338Z,13.07
2022-09-15T04:05:31.388Z,13.07
2022-09-15T04:06:31.291Z,13.09
2022-09-15T04:07:31.348Z,13.09
2022-09-15T04:08:31.248Z,13.09
2022-09-15T04:09:31.303Z,13.11
2022-09-15T04:10:31.387Z,13.11
2022-09-15T04:11:31.344Z,13.14
2022-09-15T04:12:31.276Z,13.12
2022-09-15T04:13:31.266Z,13.14
2022-09-15T04:14:31.184Z,13.14
2022-09-15T04:15:31.368Z,13.15
2022-09-15T04:16:31.289Z,13.15
2022-09-15T04:17:31.265Z,13.17
2022-09-15T04:18:31.186Z,13.18
2022-09-15T04:19:31.388Z,13.18
2022-09-15T04:20:31.256Z,13.18
2022-09-15T04:21:31.729Z,13.20
2022-09-15T04:22:31.380Z,13.18
2022-09-15T04:23:31.111Z,13.20
2022-09-15T04:24:31.187Z,13.21
2022-09-15T04:25:31.217Z,13.20
2022-09-15T04:26:31.181Z,13.21
2022-09-15T04:27:31.214Z,13.20
2022-09-15T04:28:31.107Z,13.21
2022-09-15T04:29:31.186Z,13.21
2022-09-15T04:30:31.034Z,13.22
2022-09-15T04:31:31.335Z,13.21
2022-09-15T04:32:31.152Z,13.24
2022-09-15T04:33:31.021Z,13.22
2022-09-15T04:34:31.145Z,13.24
2022-09-15T04:35:31.152Z,13.24
2022-09-15T04:36:31.036Z,13.24
2022-09-15T04:37:31.096Z,13.24
2022-09-15T04:38:30.976Z,13.25
2022-09-15T04:39:31.031Z,13.25
2022-09-15T04:40:30.974Z,13.24
2022-09-15T04:41:31.025Z,13.27
2022-09-15T04:42:30.970Z,13.25
2022-09-15T04:43:31.021Z,13.25
2022-09-15T04:44:30.831Z,13.25
2022-09-15T04:45:31.099Z,13.27
2022-09-15T04:46:31.186Z,13.25
2022-09-15T04:47:30.849Z,13.27
2022-09-15T04:48:30.889Z,13.27
2022-09-15T04:49:30.979Z,13.29
2022-09-15T04:50:30.869Z,13.29
2022-09-15T04:51:30.856Z,13.30
2022-09-15T04:52:30.982Z,13.29
2022-09-15T04:53:31.017Z,13.30
2022-09-15T04:54:30.779Z,13.30
2022-09-15T04:55:31.098Z,13.29
2022-09-15T04:56:30.867Z,13.29
2022-09-15T04:57:30.853Z,13.30
2022-09-15T04:58:30.792Z,13.30
2022-09-15T04:59:30.994Z,13.30
2022-09-15T05:00:31.082Z,13.32
2022-09-15T05:01:30.978Z,13.30
2022-09-15T05:02:30.989Z,13.33
2022-09-15T05:03:30.791Z,13.32
2022-09-15T05:04:30.707Z,13.33
2022-09-15T05:05:30.948Z,13.33
2022-09-15T05:06:30.832Z,13.36
2022-09-15T05:07:30.895Z,13.33
2022-09-15T05:08:30.733Z,13.36
2022-09-15T05:09:30.833Z,13.36
2022-09-15T05:10:30.708Z,13.36
2022-09-15T05:11:30.627Z,13.37
2022-09-15T05:12:30.668Z,13.36
2022-09-15T05:13:30.656Z,13.37
2022-09-15T05:14:30.655Z,13.36
2022-09-15T05:15:30.623Z,13.37
2022-09-15T05:16:30.716Z,13.38
2022-09-15T05:17:30.658Z,13.37
2022-09-15T05:18:30.581Z,13.37
2022-09-15T05:19:30.653Z,13.37
2022-09-15T05:20:30.673Z,13.38
2022-09-15T05:21:30.641Z,13.37
2022-09-15T05:22:30.587Z,13.38
2022-09-15T05:23:30.596Z,13.38
2022-09-15T05:24:30.583Z,13.38
2022-09-15T05:25:31.168Z,13.37
2022-09-15T05:26:30.475Z,13.40
2022-09-15T05:27:30.648Z,13.38
2022-09-15T05:28:30.592Z,13.38
2022-09-15T05:29:30.596Z,13.41
2022-09-15T05:30:41.414Z,13.41
2022-09-15T05:31:30.929Z,13.43
2022-09-15T05:32:30.526Z,13.46
2022-09-15T05:33:30.407Z,13.46
2022-09-15T05:34:30.445Z,13.47
2022-09-15T05:35:30.368Z,13.47
2022-09-15T05:36:30.476Z,13.49
2022-09-15T05:37:30.521Z,13.51
2022-09-15T05:38:30.389Z,13.52
2022-09-15T05:39:30.576Z,13.54
2022-09-15T05:40:30.683Z,13.52
2022-09-15T05:41:30.492Z,13.55
2022-09-15T05:42:30.317Z,13.55
2022-09-15T05:43:30.651Z,13.55
2022-09-15T05:44:30.344Z,13.55
2022-09-15T05:45:30.511Z,13.56
2022-09-15T05:46:31.249Z,13.56
2022-09-15T05:47:30.315Z,13.56
2022-09-15T05:48:30.372Z,13.56
2022-09-15T05:49:30.289Z,13.59
2022-09-15T05:50:30.726Z,13.61
2022-09-15T05:51:30.332Z,13.61
2022-09-15T05:52:30.548Z,13.63
2022-09-15T05:53:30.284Z,13.65
2022-09-15T05:54:30.420Z,13.70
2022-09-15T05:55:30.522Z,13.70
2022-09-15T05:56:30.226Z,13.69
2022-09-15T05:57:30.280Z,13.70
2022-09-15T05:58:30.344Z,13.73
2022-09-15T05:59:30.243Z,13.73
2022-09-15T06:00:30.335Z,13.73
2022-09-15T06:01:30.638Z,13.76
2022-09-15T06:02:30.363Z,13.77
2022-09-15T06:03:31.051Z,13.80
2022-09-15T06:04:30.370Z,13.80
2022-09-15T06:05:30.257Z,13.81
2022-09-15T06:06:30.208Z,13.81
2022-09-15T06:07:30.886Z,13.84
2022-09-15T06:08:30.314Z,13.87
2022-09-15T06:09:30.101Z,13.88
2022-09-15T06:10:30.090Z,13.88
2022-09-15T06:11:30.075Z,13.91
2022-09-15T06:12:30.014Z,13.91
2022-09-15T06:13:30.051Z,13.92
2022-09-15T06:14:30.138Z,13.92
2022-09-15T06:15:30.004Z,13.92
2022-09-15T06:16:30.052Z,13.94
2022-09-15T06:17:29.935Z,13.94
2022-09-15T06:18:29.930Z,13.96
2022-09-15T06:19:30.022Z,13.96
2022-09-15T06:20:29.941Z,13.98
2022-09-15T06:21:29.944Z,13.99
2022-09-15T06:22:29.955Z,14.02
2022-09-15T06:23:29.957Z,14.01
2022-09-15T06:24:30.410Z,14.04
2022-09-15T06:25:30.182Z,14.04
2022-09-15T06:26:29.899Z,14.04
2022-09-15T06:27:29.901Z,14.06
2022-09-15T06:28:29.902Z,14.07
2022-09-15T06:29:29.856Z,14.07
2022-09-15T06:30:29.894Z,14.10
2022-09-15T06:31:30.066Z,14.12
2022-09-15T06:32:29.992Z,14.13
2022-09-15T06:33:29.839Z,14.16
2022-09-15T06:34:29.861Z,14.17
2022-09-15T06:35:30.044Z,14.17
2022-09-15T06:36:29.983Z,14.19
2022-09-15T06:37:29.850Z,14.20
2022-09-15T06:38:29.820Z,14.21
2022-09-15T06:39:29.884Z,14.21
2022-09-15T06:40:29.918Z,14.24
2022-09-15T06:41:47.004Z,14.25
2022-09-15T06:42:29.767Z,14.25
2022-09-15T06:43:29.957Z,14.27
2022-09-15T06:44:29.834Z,14.29
2022-09-15T06:45:29.755Z,14.29
2022-09-15T06:46:29.968Z,14.29
2022-09-15T06:47:29.912Z,14.31
2022-09-15T06:48:29.832Z,14.34
2022-09-15T06:49:29.771Z,14.37
2022-09-15T06:50:30.251Z,14.37
2022-09-15T06:51:30.097Z,14.38
2022-09-15T06:52:29.792Z,14.39
2022-09-15T06:53:29.994Z,14.42
2022-09-15T06:54:29.673Z,14.43
2022-09-15T06:55:29.696Z,14.44
2022-09-15T06:56:30.950Z,14.44
2022-09-15T06:57:29.791Z,14.46
2022-09-15T06:58:30.187Z,14.46
2022-09-15T06:59:29.654Z,14.49
2022-09-15T07:00:29.780Z,14.49
2022-09-15T07:01:29.737Z,14.53
2022-09-15T07:02:30.192Z,14.53
2022-09-15T07:03:29.701Z,14.53
2022-09-15T07:04:29.916Z,14.57
2022-09-15T07:05:29.917Z,14.57
2022-09-15T07:06:30.295Z,14.61
2022-09-15T07:07:29.537Z,14.61
2022-09-15T07:08:29.476Z,14.64
2022-09-15T07:09:29.851Z,14.64
2022-09-15T07:10:29.925Z,14.65
2022-09-15T07:11:30.002Z,14.68
2022-09-15T07:12:29.613Z,14.68
2022-09-15T07:13:29.758Z,14.72
2022-09-15T07:14:29.850Z,14.74
2022-09-15T07:15:29.505Z,14.75
2022-09-15T07:16:29.687Z,14.80
2022-09-15T07:17:29.411Z,14.83
2022-09-15T07:18:29.433Z,14.83
2022-09-15T07:19:29.818Z,14.84
2022-09-15T07:20:29.829Z,14.87
2022-09-15T07:21:29.443Z,14.86
2022-09-15T07:22:29.357Z,14.88
2022-09-15T07:23:29.350Z,14.90
2022-09-15T07:24:29.547Z,14.91
2022-09-15T07:25:29.612Z,14.94
2022-09-15T07:26:29.421Z,14.98
2022-09-15T07:27:29.371Z,15.01
2022-09-15T07:28:29.413Z,15.03
2022-09-15T07:29:30.166Z,15.09
2022-09-15T07:30:29.389Z,15.13
2022-09-15T07:31:29.503Z,15.19
2022-09-15T07:32:29.492Z,15.24
2022-09-15T07:33:29.498Z,15.30
2022-09-15T07:34:29.298Z,15.36
2022-09-15T07:35:29.358Z,15.41
2022-09-15T07:36:29.857Z,15.43
2022-09-15T07:37:30.489Z,15.46
2022-09-15T07:38:29.333Z,15.49
2022-09-15T07:39:30.141Z,15.49
2022-09-15T07:40:29.478Z,15.48
2022-09-15T07:41:30.009Z,15.48
2022-09-15T07:42:33.404Z,15.48
2022-09-15T07:43:29.302Z,15.48
2022-09-15T07:44:29.258Z,15.49
2022-09-15T07:45:29.338Z,15.49
2022-09-15T07:46:29.247Z,15.49
2022-09-15T07:47:29.477Z,15.46
2022-09-15T07:48:30.614Z,15.45
2022-09-15T07:49:29.639Z,15.45
2022-09-15T07:50:29.151Z,15.42
2022-09-15T07:51:29.104Z,15.42
2022-09-15T07:52:29.181Z,15.42
2022-09-15T07:53:29.096Z,15.41
2022-09-15T07:54:29.175Z,15.38
2022-09-15T07:55:29.158Z,15.36
2022-09-15T07:56:29.090Z,15.36
2022-09-15T07:57:29.182Z,15.36
2022-09-15T07:58:29.088Z,15.39
2022-09-15T07:59:29.070Z,15.41
2022-09-15T08:00:29.043Z,15.42
2022-09-15T08:01:29.038Z,15.43
2022-09-15T08:02:29.056Z,15.43
2022-09-15T08:03:29.203Z,15.45
2022-09-15T08:04:29.203Z,15.48
2022-09-15T08:05:29.465Z,15.54
2022-09-15T08:06:29.476Z,15.60
2022-09-15T08:07:29.279Z,15.67
2022-09-15T08:08:28.997Z,15.72
2022-09-15T08:09:28.958Z,15.74
2022-09-15T08:10:29.002Z,15.75
2022-09-15T08:11:29.023Z,15.78
2022-09-15T08:12:29.279Z,15.81
2022-09-15T08:13:28.980Z,15.70
2022-09-15T08:14:29.172Z,15.66
2022-09-15T08:15:29.061Z,15.60
2022-09-15T08:16:29.193Z,15.59
2022-09-15T08:17:29.430Z,15.59
2022-09-15T08:18:28.808Z,15.59
2022-09-15T08:19:29.551Z,15.60
2022-09-15T08:20:29.185Z,15.63
2022-09-15T08:21:29.368Z,15.64
2022-09-15T08:22:29.145Z,15.68
2022-09-15T08:23:28.914Z,15.74
2022-09-15T08:24:28.892Z,15.81
2022-09-15T08:25:28.801Z,15.84
2022-09-15T08:26:28.765Z,15.82
2022-09-15T08:27:28.722Z,15.84
2022-09-15T08:28:28.919Z,15.74
2022-09-15T08:29:28.699Z,15.68
2022-09-15T08:30:28.790Z,15.67
2022-09-15T08:31:28.822Z,15.66
2022-09-15T08:32:28.724Z,15.70
2022-09-15T08:33:28.692Z,15.70
2022-09-15T08:34:28.664Z,15.68
2022-09-15T08:35:28.662Z,15.64
2022-09-15T08:36:28.652Z,15.61
2022-09-15T08:37:28.739Z,15.63
2022-09-15T08:38:28.746Z,15.63
2022-09-15T08:39:29.056Z,15.66
2022-09-15T08:40:28.700Z,15.68
2022-09-15T08:41:28.589Z,15.74
2022-09-15T08:42:28.626Z,15.68
2022-09-15T08:43:28.697Z,15.68
2022-09-15T08:44:33.753Z,15.68
2022-09-15T08:45:28.514Z,15.67
2022-09-15T08:46:28.579Z,15.61
2022-09-15T08:47:28.514Z,15.63
2022-09-15T08:48:28.443Z,15.66
2022-09-15T08:49:49.997Z,15.70
2022-09-15T08:50:28.435Z,15.78
2022-09-15T08:51:28.465Z,15.86
2022-09-15T08:52:28.465Z,15.96
2022-09-15T08:53:28.434Z,16.07
2022-09-15T08:54:28.444Z,16.14
2022-09-15T08:55:28.515Z,16.12
2022-09-15T08:56:28.427Z,16.12
2022-09-15T08:57:28.420Z,16.12
2022-09-15T08:58:28.392Z,16.15
2022-09-15T08:59:28.341Z,16.15
2022-09-15T09:00:28.383Z,16.16
2022-09-15T09:01:28.421Z,16.01
2022-09-15T09:02:28.375Z,15.99
2022-09-15T09:03:28.526Z,16.01
2022-09-15T09:04:28.458Z,16.06
2022-09-15T09:05:28.683Z,16.04
2022-09-15T09:06:28.484Z,16.03
2022-09-15T09:07:28.460Z,16.01
2022-09-15T09:08:28.566Z,16.03
2022-09-15T09:09:28.497Z,16.04
2022-09-15T09:10:28.278Z,15.94
2022-09-15T09:11:28.241Z,15.96
2022-09-15T09:12:28.299Z,15.89
2022-09-15T09:13:30.973Z,15.93
2022-09-15T09:14:28.218Z,15.94
2022-09-15T09:15:28.285Z,16.00
2022-09-15T09:16:28.244Z,16.07
2022-09-15T09:17:28.261Z,16.16
2022-09-15T09:18:28.202Z,16.25
2022-09-15T09:19:32.053Z,16.37
2022-09-15T09:20:28.206Z,16.40
2022-09-15T09:21:28.211Z,16.42
2022-09-15T09:22:28.164Z,16.45
2022-09-15T09:23:28.283Z,16.41
2022-09-15T09:24:28.316Z,16.31
2022-09-15T09:25:28.843Z,16.31
2022-09-15T09:26:28.145Z,16.30
2022-09-15T09:27:28.082Z,16.27
2022-09-15T09:28:28.241Z,16.30
2022-09-15T09:29:28.131Z,16.30
2022-09-15T09:30:28.435Z,16.31
2022-09-15T09:31:28.238Z,16.06
2022-09-15T09:32:28.031Z,15.74
2022-09-15T09:33:28.104Z,15.61
2022-09-15T09:34:28.204Z,15.64
2022-09-15T09:35:27.973Z,15.70
2022-09-15T09:36:28.065Z,15.78
2022-09-15T09:37:27.996Z,15.84
2022-09-15T09:38:27.956Z,15.89
2022-09-15T09:39:27.963Z,15.96
2022-09-15T09:40:28.510Z,16.06
2022-09-15T09:41:28.186Z,16.14
2022-09-15T09:42:27.922Z,16.23
2022-09-15T09:43:28.017Z,16.33
2022-09-15T09:44:28.059Z,16.33
2022-09-15T09:45:27.894Z,16.35
2022-09-15T09:46:28.130Z,16.37
2022-09-15T09:47:27.851Z,16.37
2022-09-15T09:48:27.905Z,16.37
2022-09-15T09:49:27.861Z,16.35
2022-09-15T09:50:28.022Z,16.22
2022-09-15T09:51:27.838Z,16.11
2022-09-15T09:52:27.928Z,16.12
2022-09-15T09:53:28.017Z,16.12
2022-09-15T09:54:27.989Z,16.12
2022-09-15T09:55:27.967Z,16.06
2022-09-15T09:56:27.823Z,15.94
2022-09-15T09:57:27.782Z,15.99
2022-09-15T09:58:27.838Z,15.94
2022-09-15T09:59:27.745Z,15.97
2022-09-15T10:00:27.723Z,15.96
2022-09-15T10:01:27.936Z,15.88
2022-09-15T10:02:27.848Z,15.86
2022-09-15T10:03:32.180Z,15.81
2022-09-15T10:04:27.801Z,15.84
2022-09-15T10:05:27.962Z,15.82
2022-09-15T10:06:27.877Z,15.84
2022-09-15T10:07:27.884Z,15.88
2022-09-15T10:08:27.782Z,15.89
2022-09-15T10:09:32.573Z,15.97
2022-09-15T10:10:27.749Z,16.03
2022-09-15T10:11:27.686Z,16.12
2022-09-15T10:12:27.579Z,16.15
2022-09-15T10:13:27.749Z,16.20
2022-09-15T10:14:27.747Z,16.12
2022-09-15T10:15:27.553Z,16.12
2022-09-15T10:16:27.906Z,16.15
2022-09-15T10:17:27.659Z,16.23
2022-09-15T10:18:28.179Z,16.26
2022-09-15T10:19:27.758Z,16.16
2022-09-15T10:20:27.784Z,16.22
2022-09-15T10:21:27.542Z,16.26
2022-09-15T10:22:27.838Z,16.33
2022-09-15T10:23:27.671Z,16.40
2022-09-15T10:24:27.559Z,16.53
2022-09-15T10:25:44.246Z,16.65
2022-09-15T10:26:27.635Z,16.74
2022-09-15T10:27:27.575Z,16.81
2022-09-15T10:28:27.522Z,16.83
2022-09-15T10:29:27.608Z,16.85
2022-09-15T10:30:27.713Z,16.90
2022-09-15T10:31:27.728Z,16.92
2022-09-15T10:32:27.705Z,16.89
2022-09-15T10:33:27.763Z,16.95
2022-09-15T10:34:28.031Z,16.96
2022-09-15T10:35:27.410Z,16.95
2022-09-15T10:36:27.584Z,16.96
2022-09-15T10:37:27.398Z,16.85
2022-09-15T10:38:27.370Z,16.80
2022-09-15T10:39:27.399Z,16.75
2022-09-15T10:40:27.650Z,16.62
2022-09-15T10:41:27.331Z,16.53
2022-09-15T10:42:27.571Z,16.52
2022-09-15T10:43:27.695Z,16.41
2022-09-15T10:44:27.337Z,16.37
2022-09-15T10:45:27.332Z,16.20
2022-09-15T10:46:27.312Z,16.15
2022-09-15T10:47:27.352Z,16.07
2022-09-15T10:48:27.252Z,16.03
2022-09-15T10:49:27.517Z,15.94
2022-09-15T10:50:27.472Z,15.88
2022-09-15T10:51:27.285Z,15.82
2022-09-15T10:52:27.312Z,15.75
2022-09-15T10:53:27.382Z,15.74
2022-09-15T10:54:27.234Z,15.74
2022-09-15T10:55:42.567Z,15.70
2022-09-15T10:56:27.236Z,15.66
2022-09-15T10:58:27.153Z,15.42
2022-09-15T10:59:27.197Z,15.35
2022-09-15T11:00:27.126Z,15.26
2022-09-15T11:01:27.140Z,15.17
2022-09-15T11:02:27.161Z,15.08
2022-09-15T11:03:27.130Z,15.01
2022-09-15T11:04:27.588Z,14.91
2022-09-15T11:05:27.128Z,14.84
2022-09-15T11:06:27.160Z,14.78
2022-09-15T11:07:27.653Z,14.72
2022-09-15T11:08:27.576Z,14.67
2022-09-15T11:09:27.350Z,14.64
2022-09-15T11:10:27.403Z,14.60
2022-09-15T11:11:27.093Z,14.57
2022-09-15T11:12:29.408Z,14.50
2022-09-15T11:13:27.249Z,14.46
2022-09-15T11:14:27.047Z,14.35
2022-09-15T11:15:27.057Z,14.35
2022-09-15T11:16:27.098Z,14.31
2022-09-15T11:17:28.106Z,14.21
2022-09-15T11:18:27.321Z,14.19
2022-09-15T11:19:27.043Z,14.19
2022-09-15T11:20:27.005Z,14.19
2022-09-15T11:21:27.009Z,14.24
2022-09-15T11:22:27.144Z,14.27
2022-09-15T11:23:27.165Z,14.31
2022-09-15T11:24:27.063Z,14.35
2022-09-15T11:25:26.996Z,14.43
2022-09-15T11:26:26.912Z,14.46
2022-09-15T11:27:26.932Z,14.53
2022-09-15T11:28:26.916Z,14.56
2022-09-15T11:29:26.911Z,14.60
2022-09-15T11:30:26.855Z,14.67
2022-09-15T11:31:27.214Z,14.74
2022-09-15T11:32:26.878Z,14.83
2022-09-15T11:33:26.917Z,14.87
2022-09-15T11:34:26.898Z,14.87
2022-09-15T11:35:26.837Z,14.91
2022-09-15T11:36:26.764Z,14.98
2022-09-15T11:37:26.919Z,15.05
2022-09-15T11:38:26.783Z,15.11
2022-09-15T11:39:26.846Z,15.17
2022-09-15T11:40:26.933Z,15.23
2022-09-15T11:41:26.717Z,15.35
2022-09-15T11:42:26.747Z,15.43
2022-09-15T11:43:26.778Z,15.57
2022-09-15T11:44:26.706Z,15.84
2022-09-15T11:45:26.705Z,16.03
2022-09-15T11:46:26.817Z,16.15
2022-09-15T11:47:26.761Z,16.31
2022-09-15T11:48:26.682Z,16.41
2022-09-15T11:49:26.722Z,16.49
2022-09-15T11:50:26.668Z,16.56
2022-09-15T11:51:27.026Z,16.74
2022-09-15T11:52:26.896Z,16.92
2022-09-15T11:53:26.605Z,17.00
2022-09-15T11:54:29.943Z,17.18
2022-09-15T11:55:26.710Z,17.29
2022-09-15T11:56:26.617Z,17.40
2022-09-15T11:57:26.567Z,17.62
2022-09-15T11:58:26.774Z,17.64
2022-09-15T11:59:26.822Z,17.67
2022-09-15T12:00:26.588Z,17.69
2022-09-15T12:01:26.583Z,17.70
2022-09-15T12:02:26.746Z,17.70
2022-09-15T12:03:26.550Z,17.78
2022-09-15T12:04:26.534Z,17.74
2022-09-15T12:05:26.474Z,17.73
2022-09-15T12:06:26.534Z,17.64
2022-09-15T12:07:26.514Z,17.48
2022-09-15T12:08:26.534Z,17.41
2022-09-15T12:09:26.530Z,17.36
2022-09-15T12:10:26.506Z,17.29
2022-09-15T12:11:26.454Z,17.18
2022-09-15T12:12:30.611Z,17.13
2022-09-15T12:13:26.496Z,17.08
2022-09-15T12:14:26.420Z,16.95
2022-09-15T12:15:26.405Z,16.86
2022-09-15T12:16:26.418Z,16.78
2022-09-15T12:17:26.446Z,16.67
2022-09-15T12:18:44.833Z,16.56
2022-09-15T12:19:26.413Z,16.52
2022-09-15T12:20:26.373Z,16.48
2022-09-15T12:21:26.337Z,16.42
2022-09-15T12:22:26.527Z,16.34
2022-09-15T12:23:26.528Z,16.31
2022-09-15T12:24:26.618Z,16.23
2022-09-15T12:25:26.438Z,16.11
2022-09-15T12:26:26.338Z,16.04
2022-09-15T12:27:26.333Z,16.01
2022-09-15T12:28:26.841Z,15.97
2022-09-15T12:29:26.299Z,15.89
2022-09-15T12:30:26.251Z,15.86
2022-09-15T12:31:26.529Z,15.85
2022-09-15T12:32:26.374Z,15.74
2022-09-15T12:33:26.412Z,15.67
2022-09-15T12:34:26.250Z,15.63
2022-09-15T12:35:26.253Z,15.61
2022-09-15T12:36:26.263Z,15.56
2022-09-15T12:37:26.655Z,15.42
2022-09-15T12:38:26.209Z,15.38
2022-09-15T12:39:26.212Z,15.33
2022-09-15T12:40:26.390Z,15.31
2022-09-15T12:41:26.285Z,15.33
2022-09-15T12:42:26.173Z,15.38
2022-09-15T12:43:26.259Z,15.43
2022-09-15T12:44:26.143Z,15.48
2022-09-15T12:45:26.165Z,15.51
2022-09-15T12:46:26.168Z,15.56
2022-09-15T12:47:26.102Z,15.63
2022-09-15T12:48:26.135Z,15.67
2022-09-15T12:49:26.216Z,15.72
2022-09-15T12:50:26.128Z,15.70
2022-09-15T12:51:26.214Z,15.75
2022-09-15T12:52:26.130Z,15.79
2022-09-15T12:53:26.280Z,15.82